createdAt,value
2022-12-20T00:00:52.405Z,14.21
2022-12-20T00:03:20.201Z,14.29
2022-12-20T00:05:47.369Z,14.30
2022-12-20T00:08:13.866Z,14.22
2022-12-20T00:10:42.998Z,14.16
2022-12-20T00:13:09.962Z,14.17
2022-12-20T00:15:36.657Z,13.94
2022-12-20T00:18:03.848Z,13.98
2022-12-20T00:20:30.617Z,14.15
2022-12-20T00:22:57.068Z,14.12
2022-12-20T00:25:23.561Z,13.90
2022-12-20T00:27:50.101Z,14.03
2022-12-20T00:30:17.364Z,14.13
2022-12-20T00:32:44.541Z,13.95
2022-12-20T00:35:11.830Z,14.16
2022-12-20T00:37:38.333Z,14.26
2022-12-20T00:40:06.064Z,14.11
2022-12-20T00:42:33.160Z,14.18
2022-12-20T00:44:59.604Z,13.99
2022-12-20T00:47:26.019Z,13.95
2022-12-20T00:49:52.333Z,14.09
2022-12-20T00:52:18.848Z,14.35
2022-12-20T00:54:45.333Z,14.29
2022-12-20T00:57:11.811Z,14.31
2022-12-20T00:59:38.221Z,14.31
2022-12-20T01:02:04.695Z,14.31
2022-12-20T01:04:31.240Z,14.20
2022-12-20T01:06:57.605Z,14.17
2022-12-20T01:09:24.036Z,14.22
2022-12-20T01:11:50.360Z,14.21
2022-12-20T01:14:17.012Z,14.21
2022-12-20T01:16:47.645Z,14.52
2022-12-20T01:19:17.675Z,14.45
2022-12-20T01:21:44.955Z,14.35
2022-12-20T01:24:13.105Z,14.45
2022-12-20T01:28:20.394Z,14.25
2022-12-20T01:30:46.850Z,14.29
2022-12-20T01:33:13.248Z,14.24
2022-12-20T01:35:39.695Z,13.48
2022-12-20T01:38:06.033Z,14.11
2022-12-20T01:40:32.348Z,14.20
2022-12-20T01:42:58.788Z,14.21
2022-12-20T01:45:30.548Z,14.32
2022-12-20T01:47:59.579Z,14.19
2022-12-20T01:50:26.641Z,14.23
2022-12-20T01:52:53.277Z,13.33
2022-12-20T01:55:26.200Z,14.30
2022-12-20T01:57:59.372Z,14.19
2022-12-20T02:00:26.153Z,14.06
2022-12-20T02:02:52.684Z,14.13
2022-12-20T02:05:22.504Z,14.26
2022-12-20T02:07:54.252Z,14.17
2022-12-20T02:10:26.281Z,14.27
2022-12-20T02:13:03.911Z,14.22
2022-12-20T02:15:51.723Z,14.37
2022-12-20T02:18:25.416Z,14.44
2022-12-20T02:21:14.656Z,14.27
2022-12-20T02:23:49.938Z,14.23
2022-12-20T02:26:35.115Z,14.40
2022-12-20T02:29:33.103Z,14.33
2022-12-20T02:32:16.065Z,14.32
2022-12-20T02:34:43.440Z,14.34
2022-12-20T02:37:10.751Z,13.79
2022-12-20T02:39:40.241Z,13.81
2022-12-20T02:42:09.961Z,13.51
2022-12-20T02:45:00.181Z,13.73
2022-12-20T02:47:36.701Z,13.71
2022-12-20T02:50:04.780Z,13.60
2022-12-20T02:52:32.478Z,13.49
2022-12-20T02:55:00.430Z,13.65
2022-12-20T02:57:57.853Z,13.58
2022-12-20T03:00:32.134Z,13.21
2022-12-20T03:03:17.978Z,13.56
2022-12-20T03:05:46.673Z,13.45
2022-12-20T03:08:13.086Z,13.50
2022-12-20T03:10:39.682Z,13.39
2022-12-20T03:13:06.081Z,13.47
2022-12-20T03:15:32.568Z,13.44
2022-12-20T03:17:58.906Z,13.42
2022-12-20T03:20:25.426Z,12.91
2022-12-20T03:22:51.782Z,12.65
2022-12-20T03:25:18.228Z,13.68
2022-12-20T03:27:44.967Z,13.46
2022-12-20T03:30:11.958Z,13.30
2022-12-20T03:32:40.948Z,13.51
2022-12-20T03:35:08.065Z,13.58
2022-12-20T03:37:34.421Z,13.49
2022-12-20T03:40:00.757Z,12.98
2022-12-20T03:42:27.572Z,12.72
2022-12-20T03:44:54.061Z,13.01
2022-12-20T03:47:20.487Z,12.88
2022-12-20T03:49:46.871Z,12.73
2022-12-20T03:52:15.208Z,13.12
2022-12-20T03:54:41.606Z,12.92
2022-12-20T03:57:08.025Z,12.86
2022-12-20T03:59:35.548Z,12.29
2022-12-20T04:02:02.773Z,13.11
2022-12-20T04:04:29.785Z,12.77
2022-12-20T04:06:56.425Z,12.72
2022-12-20T04:09:23.022Z,12.87
2022-12-20T04:11:49.529Z,13.01
2022-12-20T04:14:15.913Z,12.88
2022-12-20T04:16:42.390Z,12.76
2022-12-20T04:19:08.839Z,12.75
2022-12-20T04:21:35.960Z,12.73
2022-12-20T04:24:03.289Z,12.81
2022-12-20T04:26:30.202Z,12.93
2022-12-20T04:28:57.710Z,12.99
2022-12-20T04:31:24.753Z,13.20
2022-12-20T04:33:51.812Z,12.94
2022-12-20T04:36:18.619Z,13.40
2022-12-20T04:38:45.042Z,13.34
2022-12-20T04:41:21.963Z,13.13
2022-12-20T04:43:53.130Z,13.42
2022-12-20T04:46:19.800Z,13.16
2022-12-20T04:48:57.170Z,13.08
2022-12-20T04:51:25.428Z,13.51
2022-12-20T04:53:51.841Z,13.35
2022-12-20T04:56:20.558Z,13.28
2022-12-20T04:58:48.921Z,13.57
2022-12-20T05:01:15.963Z,13.36
2022-12-20T05:03:42.945Z,13.36
2022-12-20T05:06:10.077Z,13.41
2022-12-20T05:08:36.782Z,13.38
2022-12-20T05:11:04.505Z,13.45
2022-12-20T05:13:31.488Z,13.69
2022-12-20T05:15:58.412Z,13.52
2022-12-20T05:18:25.870Z,13.66
2022-12-20T05:21:15.266Z,13.35
2022-12-20T05:24:00.848Z,13.52
2022-12-20T05:26:30.660Z,13.34
2022-12-20T05:28:57.103Z,13.37
2022-12-20T05:31:23.495Z,13.49
2022-12-20T05:33:49.880Z,13.57
2022-12-20T05:36:16.243Z,13.59
2022-12-20T05:38:42.762Z,13.58
2022-12-20T05:41:09.411Z,13.26
2022-12-20T05:43:35.774Z,13.21
2022-12-20T05:46:02.177Z,13.30
2022-12-20T05:48:28.703Z,13.70
2022-12-20T05:50:55.509Z,13.45
2022-12-20T05:53:21.958Z,13.68
2022-12-20T05:55:50.604Z,13.34
2022-12-20T05:58:17.175Z,13.40
2022-12-20T06:00:44.453Z,13.60
2022-12-20T06:03:12.032Z,13.12
2022-12-20T06:05:39.087Z,13.33
2022-12-20T06:08:06.857Z,13.48
2022-12-20T06:10:37.050Z,13.49
2022-12-20T06:13:04.408Z,13.16
2022-12-20T06:15:31.525Z,13.29
2022-12-20T06:17:58.002Z,13.44
2022-12-20T06:20:47.498Z,13.17
2022-12-20T06:23:14.142Z,12.86
2022-12-20T06:25:40.525Z,13.19
2022-12-20T06:28:07.607Z,12.76
2022-12-20T06:30:38.581Z,13.21
2022-12-20T06:33:05.271Z,12.84
2022-12-20T06:35:32.342Z,12.35
2022-12-20T06:37:58.755Z,12.28
2022-12-20T06:40:25.126Z,13.00
2022-12-20T06:42:51.560Z,12.81
2022-12-20T06:45:17.973Z,13.22
2022-12-20T06:47:46.985Z,13.14
2022-12-20T06:50:13.532Z,12.97
2022-12-20T06:52:39.878Z,13.31
2022-12-20T06:55:06.497Z,13.13
2022-12-20T06:57:33.240Z,13.26
2022-12-20T06:59:59.619Z,12.54
2022-12-20T07:02:27.894Z,13.30
2022-12-20T07:04:54.885Z,13.10
2022-12-20T07:07:21.325Z,12.98
2022-12-20T07:09:47.737Z,13.32
2022-12-20T07:12:18.153Z,13.15
2022-12-20T07:14:44.549Z,12.71
2022-12-20T07:17:11.099Z,13.25
2022-12-20T07:19:37.644Z,12.74
2022-12-20T07:22:05.545Z,12.54
2022-12-20T07:24:33.086Z,13.45
2022-12-20T07:26:59.660Z,13.20
2022-12-20T07:29:26.227Z,13.39
2022-12-20T07:31:53.091Z,12.90
2022-12-20T07:34:19.529Z,13.35
2022-12-20T07:36:46.013Z,13.42
2022-12-20T07:39:12.380Z,13.52
2022-12-20T07:41:38.811Z,13.26
2022-12-20T07:44:06.208Z,13.51
2022-12-20T07:46:33.815Z,13.45
2022-12-20T07:49:00.319Z,13.03
2022-12-20T07:51:31.469Z,13.49
2022-12-20T07:54:04.922Z,13.73
2022-12-20T07:56:40.734Z,13.40
2022-12-20T07:59:10.518Z,13.06
2022-12-20T08:01:37.221Z,13.77
2022-12-20T08:04:08.828Z,13.12
2022-12-20T08:06:37.386Z,13.57
2022-12-20T08:09:06.026Z,13.84
2022-12-20T08:11:34.649Z,13.85
2022-12-20T08:14:01.657Z,13.73
2022-12-20T08:16:29.281Z,13.95
2022-12-20T08:18:55.962Z,13.65
2022-12-20T08:21:22.445Z,13.79
2022-12-20T08:23:48.819Z,13.85
2022-12-20T08:26:15.231Z,13.69
2022-12-20T08:28:41.747Z,12.99
2022-12-20T08:31:09.965Z,13.62
2022-12-20T08:33:37.884Z,13.65
2022-12-20T08:36:11.793Z,13.80
2022-12-20T08:38:38.909Z,13.76
2022-12-20T08:41:11.168Z,13.96
2022-12-20T08:43:38.010Z,14.04
2022-12-20T08:46:11.219Z,13.71
2022-12-20T08:48:37.843Z,13.59
2022-12-20T08:51:09.465Z,13.91
2022-12-20T08:53:36.658Z,13.95
2022-12-20T08:56:08.497Z,13.87
2022-12-20T08:58:35.730Z,13.96
2022-12-20T09:01:06.886Z,13.75
2022-12-20T09:03:35.119Z,13.66
2022-12-20T09:06:06.561Z,13.70
2022-12-20T09:08:34.408Z,13.84
2022-12-20T09:11:06.535Z,13.76
2022-12-20T09:13:36.555Z,13.68
2022-12-20T09:16:15.760Z,13.54
2022-12-20T09:18:42.388Z,13.27
2022-12-20T09:21:10.008Z,13.88
2022-12-20T09:23:37.342Z,13.89
2022-12-20T09:26:11.594Z,13.66
2022-12-20T09:28:41.660Z,13.85
2022-12-20T09:31:12.061Z,13.78
2022-12-20T09:33:38.464Z,14.06
2022-12-20T09:36:07.476Z,13.99
2022-12-20T09:38:33.882Z,14.21
2022-12-20T09:41:06.713Z,13.46
2022-12-20T09:43:33.942Z,14.23
2022-12-20T09:46:02.858Z,14.26
2022-12-20T09:48:33.907Z,14.04
2022-12-20T09:51:42.520Z,14.43
2022-12-20T09:54:21.005Z,14.38
2022-12-20T09:56:59.902Z,13.57
2022-12-20T09:59:27.426Z,13.78
2022-12-20T10:01:54.019Z,14.44
2022-12-20T10:04:32.369Z,14.33
2022-12-20T10:07:01.757Z,14.37
2022-12-20T10:10:24.531Z,14.31
2022-12-20T10:13:28.551Z,14.36
2022-12-20T10:16:07.698Z,13.91
2022-12-20T10:19:08.752Z,14.42
2022-12-20T10:22:03.828Z,14.54
2022-12-20T10:24:32.189Z,13.90
2022-12-20T10:27:12.561Z,14.24
2022-12-20T10:29:39.043Z,13.98
2022-12-20T10:32:13.106Z,13.96
2022-12-20T10:34:48.538Z,14.48
2022-12-20T10:37:16.190Z,14.73
2022-12-20T10:39:51.086Z,14.49
2022-12-20T10:42:26.106Z,14.55
2022-12-20T10:44:53.745Z,14.63
2022-12-20T10:47:39.343Z,14.09
2022-12-20T10:50:21.075Z,14.28
2022-12-20T10:53:09.694Z,14.78
2022-12-20T10:55:41.573Z,14.88
2022-12-20T10:58:16.096Z,14.84
2022-12-20T11:00:43.386Z,14.73
2022-12-20T11:03:19.146Z,14.84
2022-12-20T11:06:04.432Z,14.60
2022-12-20T11:08:49.867Z,14.78
2022-12-20T11:11:36.503Z,14.78
2022-12-20T11:14:40.216Z,14.27
2022-12-20T11:17:21.897Z,15.12
2022-12-20T11:20:08.686Z,15.02
2022-12-20T11:23:06.487Z,14.67
2022-12-20T11:25:59.181Z,15.15
2022-12-20T11:28:50.928Z,15.17
2022-12-20T11:31:35.630Z,14.94
2022-12-20T11:34:35.026Z,15.16
2022-12-20T11:37:10.605Z,15.26
2022-12-20T11:39:47.336Z,15.00
2022-12-20T11:42:27.151Z,14.71
2022-12-20T11:45:09.602Z,15.28
2022-12-20T11:48:04.566Z,15.37
2022-12-20T11:50:56.247Z,15.27
2022-12-20T11:53:32.216Z,14.70
2022-12-20T11:56:04.830Z,15.12
2022-12-20T11:58:45.121Z,15.28
2022-12-20T12:01:21.441Z,15.09
2022-12-20T12:04:12.621Z,15.49
2022-12-20T12:06:44.081Z,15.28
2022-12-20T12:09:24.905Z,15.02
2022-12-20T12:12:07.934Z,14.74
2022-12-20T12:15:04.658Z,14.73
2022-12-20T12:17:44.336Z,14.36
2022-12-20T12:20:35.105Z,14.48
2022-12-20T12:23:43.507Z,13.97
2022-12-20T12:26:24.983Z,14.17
2022-12-20T12:28:55.894Z,14.16
2022-12-20T12:31:35.351Z,13.64
2022-12-20T12:34:26.808Z,14.10
2022-12-20T12:37:20.573Z,14.09
2022-12-20T12:40:11.857Z,14.09
2022-12-20T12:42:56.990Z,14.08
2022-12-20T12:45:27.973Z,13.99
2022-12-20T12:48:12.328Z,14.00
2022-12-20T12:50:45.233Z,13.95
2022-12-20T12:53:27.262Z,13.96
2022-12-20T12:56:07.282Z,13.20
2022-12-20T12:58:46.390Z,13.32
2022-12-20T13:01:51.855Z,13.92
2022-12-20T13:04:19.591Z,13.95
2022-12-20T13:06:48.804Z,13.78
2022-12-20T13:09:27.701Z,14.04
2022-12-20T13:12:02.058Z,13.99
2022-12-20T13:14:29.832Z,14.12
2022-12-20T13:17:24.104Z,14.16
2022-12-20T13:19:52.132Z,14.09
2022-12-20T13:22:24.596Z,14.19
2022-12-20T13:24:56.911Z,14.11
2022-12-20T13:27:30.626Z,13.59
2022-12-20T13:29:59.621Z,13.91
2022-12-20T13:32:47.870Z,13.89
2022-12-20T13:35:26.972Z,14.00
2022-12-20T13:38:40.742Z,13.38
2022-12-20T13:41:34.802Z,14.13
2022-12-20T13:44:13.823Z,14.00
2022-12-20T13:46:53.865Z,13.96
2022-12-20T13:49:27.469Z,14.02
2022-12-20T13:52:09.159Z,13.91
2022-12-20T13:54:40.918Z,13.92
2022-12-20T13:57:07.780Z,13.55
2022-12-20T13:59:34.515Z,13.71
2022-12-20T14:02:05.033Z,13.77
2022-12-20T14:04:44.963Z,13.47
2022-12-20T14:07:16.704Z,13.18
2022-12-20T14:09:46.645Z,13.72
2022-12-20T14:12:13.601Z,13.80
2022-12-20T14:14:47.370Z,13.67
2022-12-20T14:17:32.885Z,13.56
2022-12-20T14:20:17.141Z,13.45
2022-12-20T14:23:04.270Z,13.61
2022-12-20T14:25:41.791Z,13.73
2022-12-20T14:28:38.089Z,13.66
2022-12-20T14:31:06.609Z,13.10
2022-12-20T14:33:41.251Z,13.56
2022-12-20T14:36:20.312Z,13.44
2022-12-20T14:38:57.689Z,13.67
2022-12-20T14:41:31.690Z,13.67
2022-12-20T14:44:02.125Z,13.62
2022-12-20T14:46:30.831Z,13.01
2022-12-20T14:49:16.101Z,13.55
2022-12-20T14:51:42.774Z,13.22
2022-12-20T14:55:05.817Z,13.51
2022-12-20T14:57:23.380Z,13.30
2022-12-20T15:00:18.960Z,12.83
2022-12-20T15:02:45.804Z,13.52
2022-12-20T15:05:35.014Z,13.41
2022-12-20T15:08:28.889Z,13.50
2022-12-20T15:11:10.881Z,13.50
2022-12-20T15:13:38.794Z,13.39
2022-12-20T15:16:16.760Z,12.85
2022-12-20T15:18:43.604Z,13.30
2022-12-20T15:21:33.584Z,13.39
2022-12-20T15:24:02.236Z,13.42
2022-12-20T15:26:31.004Z,13.20
2022-12-20T15:28:57.591Z,13.45
2022-12-20T15:31:33.026Z,13.45
2022-12-20T15:34:02.552Z,13.31
2022-12-20T15:36:29.779Z,12.91
2022-12-20T15:39:14.129Z,13.42
2022-12-20T15:41:47.209Z,13.41
2022-12-20T15:44:16.578Z,13.15
2022-12-20T15:46:44.233Z,13.35
2022-12-20T15:49:18.291Z,13.52
2022-12-20T15:51:47.633Z,13.42
2022-12-20T15:54:27.429Z,13.46
2022-12-20T15:56:55.816Z,13.70
2022-12-20T15:59:58.298Z,13.57
2022-12-20T16:02:29.139Z,13.75
2022-12-20T16:04:55.943Z,13.57
2022-12-20T16:07:22.644Z,13.62
2022-12-20T16:09:49.077Z,13.37
2022-12-20T16:12:23.084Z,12.81
2022-12-20T16:14:49.568Z,13.47
2022-12-20T16:17:16.459Z,13.53
2022-12-20T16:19:43.795Z,13.36
2022-12-20T16:22:22.239Z,13.33
2022-12-20T16:24:49.276Z,12.80
2022-12-20T16:27:15.676Z,12.80
2022-12-20T16:29:42.055Z,13.24
2022-12-20T16:32:15.511Z,13.39
2022-12-20T16:34:42.024Z,13.58
2022-12-20T16:37:08.389Z,13.48
2022-12-20T16:39:34.751Z,13.05
2022-12-20T16:42:01.596Z,12.99
2022-12-20T16:44:28.009Z,13.08
2022-12-20T16:46:54.404Z,13.38
2022-12-20T16:49:21.188Z,13.34
2022-12-20T16:51:48.802Z,12.94
2022-12-20T16:54:21.618Z,13.29
2022-12-20T16:56:54.939Z,13.20
2022-12-20T16:59:25.310Z,12.93
2022-12-20T17:01:54.456Z,13.43
2022-12-20T17:04:21.629Z,13.40
2022-12-20T17:06:48.349Z,13.51
2022-12-20T17:09:16.222Z,13.22
2022-12-20T17:11:42.856Z,13.49
2022-12-20T17:14:13.201Z,13.62
2022-12-20T17:16:40.781Z,13.38
2022-12-20T17:19:07.354Z,13.32
2022-12-20T17:24:29.763Z,13.51
2022-12-20T17:26:56.116Z,13.40
2022-12-20T17:29:22.649Z,13.43
2022-12-20T17:31:49.220Z,12.88
2022-12-20T17:34:18.736Z,13.66
2022-12-20T17:36:46.421Z,13.77
2022-12-20T17:39:13.193Z,13.83
2022-12-20T17:41:39.761Z,13.73
2022-12-20T17:44:06.644Z,13.70
2022-12-20T17:46:33.056Z,13.57
2022-12-20T17:48:59.436Z,13.03
2022-12-20T17:51:28.307Z,13.82
2022-12-20T17:53:57.200Z,13.86
2022-12-20T17:56:28.669Z,13.43
2022-12-20T17:58:57.598Z,13.80
2022-12-20T18:01:30.232Z,13.91
2022-12-20T18:04:04.152Z,13.42
2022-12-20T18:06:32.660Z,13.73
2022-12-20T18:08:59.293Z,13.50
2022-12-20T18:11:27.589Z,13.40
2022-12-20T18:13:56.735Z,13.43
2022-12-20T18:16:25.970Z,12.93
2022-12-20T18:18:53.481Z,13.38
2022-12-20T18:21:21.495Z,13.05
2022-12-20T18:23:48.284Z,13.30
2022-12-20T18:26:27.176Z,13.63
2022-12-20T18:28:56.127Z,13.39
2022-12-20T18:31:25.589Z,13.28
2022-12-20T18:33:57.776Z,13.56
2022-12-20T18:36:27.665Z,12.76
2022-12-20T18:38:54.841Z,12.49
2022-12-20T18:41:23.913Z,12.56
2022-12-20T18:43:51.594Z,13.02
2022-12-20T18:46:22.934Z,12.65
2022-12-20T18:48:53.920Z,13.51
2022-12-20T18:51:23.109Z,12.99
2022-12-20T18:53:51.403Z,13.63
2022-12-20T18:56:21.810Z,12.69
2022-12-20T18:58:48.665Z,13.59
2022-12-20T19:01:18.210Z,12.47
2022-12-20T19:03:45.081Z,13.04
2022-12-20T19:06:12.298Z,13.59
2022-12-20T19:08:39.111Z,13.75
2022-12-20T19:11:08.002Z,13.54
2022-12-20T19:13:34.679Z,13.75
2022-12-20T19:16:03.316Z,13.55
2022-12-20T19:18:30.307Z,12.89
2022-12-20T19:21:10.631Z,13.64
2022-12-20T19:23:38.918Z,13.74
2022-12-20T19:26:07.427Z,13.62
2022-12-20T19:28:34.276Z,13.22
2022-12-20T19:31:09.174Z,13.76
2022-12-20T19:33:40.623Z,13.82
2022-12-20T19:36:14.594Z,12.74
2022-12-20T19:38:45.933Z,13.66
2022-12-20T19:41:12.619Z,12.85
2022-12-20T19:43:39.263Z,12.45
2022-12-20T19:46:06.063Z,13.51
2022-12-20T19:48:33.510Z,12.98
2022-12-20T19:51:11.855Z,12.94
2022-12-20T19:53:44.334Z,13.38
2022-12-20T19:56:16.612Z,13.49
2022-12-20T19:58:43.628Z,12.65
2022-12-20T20:01:11.556Z,12.54
2022-12-20T20:03:38.577Z,13.06
2022-12-20T20:06:07.180Z,12.91
2022-12-20T20:08:34.755Z,12.93
2022-12-20T20:11:09.072Z,13.39
2022-12-20T20:13:37.446Z,13.37
2022-12-20T20:16:04.623Z,12.85
2022-12-20T20:18:34.264Z,13.55
2022-12-20T20:21:06.185Z,13.60
2022-12-20T20:23:32.668Z,13.46
2022-12-20T20:25:59.867Z,12.90
2022-12-20T20:28:31.883Z,13.26
2022-12-20T20:30:59.678Z,12.87
2022-12-20T20:33:26.305Z,13.38
2022-12-20T20:35:58.067Z,13.57
2022-12-20T20:38:25.499Z,12.96
2022-12-20T20:40:52.192Z,13.59
2022-12-20T20:43:19.752Z,13.40
2022-12-20T20:45:46.229Z,13.27
2022-12-20T20:48:13.192Z,13.37
2022-12-20T20:50:40.249Z,13.45
2022-12-20T20:53:07.188Z,13.60
2022-12-20T20:55:34.522Z,13.37
2022-12-20T20:58:01.025Z,13.33
2022-12-20T21:00:29.539Z,12.90
2022-12-20T21:02:56.469Z,13.17
2022-12-20T21:08:09.977Z,13.56
2022-12-20T21:10:37.004Z,13.41
2022-12-20T21:13:04.760Z,13.59
2022-12-20T21:15:31.103Z,12.90
2022-12-20T21:17:57.497Z,12.73
2022-12-20T21:20:26.219Z,13.14
2022-12-20T21:22:53.239Z,13.02
2022-12-20T21:25:19.628Z,13.27
2022-12-20T21:27:45.958Z,13.31
2022-12-20T21:30:12.909Z,13.46
2022-12-20T21:32:39.239Z,13.41
2022-12-20T21:35:06.338Z,13.24
2022-12-20T21:37:32.796Z,13.48
2022-12-20T21:39:59.340Z,13.00
2022-12-20T21:42:25.840Z,13.21
2022-12-20T21:44:52.471Z,13.45
2022-12-20T21:47:19.121Z,13.54
2022-12-20T21:49:45.894Z,13.14
2022-12-20T21:52:12.359Z,13.40
2022-12-20T21:54:38.752Z,13.43
2022-12-20T21:57:05.108Z,13.15
2022-12-20T21:59:31.542Z,13.01
2022-12-20T22:01:58.080Z,13.52
2022-12-20T22:04:25.679Z,13.12
2022-12-20T22:06:52.049Z,13.10
2022-12-20T22:09:18.481Z,13.26
2022-12-20T22:11:48.399Z,13.12
2022-12-20T22:14:15.701Z,13.57
2022-12-20T22:16:42.434Z,13.45
2022-12-20T22:19:13.035Z,13.21
2022-12-20T22:21:39.472Z,13.32
2022-12-20T22:24:06.107Z,13.33
2022-12-20T22:26:33.614Z,13.37
2022-12-20T22:29:03.489Z,13.12
2022-12-20T22:31:30.591Z,12.84
2022-12-20T22:33:57.704Z,13.54
2022-12-20T22:36:24.707Z,13.36
2022-12-20T22:38:52.488Z,13.36
2022-12-20T22:41:22.341Z,13.64
2022-12-20T22:43:49.180Z,13.64
2022-12-20T22:46:17.485Z,13.42
2022-12-20T22:48:44.001Z,12.84
2022-12-20T22:51:22.097Z,13.51
2022-12-20T22:53:49.251Z,13.12
2022-12-20T22:56:17.355Z,13.45
2022-12-20T22:58:44.482Z,13.49
2022-12-20T23:01:12.879Z,13.37
2022-12-20T23:03:40.090Z,13.58
2022-12-20T23:06:08.192Z,13.48
2022-12-20T23:08:36.588Z,13.54
2022-12-20T23:11:23.034Z,13.27
2022-12-20T23:14:08.305Z,13.42
2022-12-20T23:16:37.079Z,13.14
2022-12-20T23:19:03.536Z,13.27
2022-12-20T23:21:48.566Z,13.55
2022-12-20T23:24:15.428Z,13.38
2022-12-20T23:26:42.631Z,13.40
2022-12-20T23:29:10.042Z,13.54
2022-12-20T23:31:36.638Z,13.35
2022-12-20T23:34:03.849Z,13.54
2022-12-20T23:36:33.121Z,13.46
2022-12-20T23:39:00.015Z,13.08
2022-12-20T23:41:26.519Z,12.90
2022-12-20T23:43:52.905Z,12.91
2022-12-20T23:46:19.992Z,13.65
2022-12-20T23:48:46.511Z,13.08
2022-12-20T23:51:13.611Z,12.70
2022-12-20T23:53:40.044Z,13.19
2022-12-20T23:56:15.475Z,13.40
2022-12-20T23:58:43.042Z,13.21
